sensor_id;sensor_type;location;lat;lon;timestamp;pressure;altitude;pressure_sealevel;temperature;humidity
6833;BME280;3454;42.654;23.378;2023-04-06T00:00:48;62955.50;;;0.41;85.64
6833;BME280;3454;42.654;23.378;2023-04-06T00:03:14;62954.44;;;0.40;86.29
6833;BME280;3454;42.654;23.378;2023-04-06T00:05:39;62964.72;;;0.49;86.45
6833;BME280;3454;42.654;23.378;2023-04-06T00:08:05;62960.38;;;0.45;85.68
6833;BME280;3454;42.654;23.378;2023-04-06T00:10:31;62947.94;;;0.34;85.86
6833;BME280;3454;42.654;23.378;2023-04-06T00:12:57;62951.72;;;0.37;85.94
6833;BME280;3454;42.654;23.378;2023-04-06T00:15:23;62954.97;;;0.40;86.11
6833;BME280;3454;42.654;23.378;2023-04-06T00:17:48;62939.28;;;0.26;86.40
6833;BME280;3454;42.654;23.378;2023-04-06T00:20:15;62953.91;;;0.39;85.75
6833;BME280;3454;42.654;23.378;2023-04-06T00:22:40;62953.34;;;0.39;85.71
6833;BME280;3454;42.654;23.378;2023-04-06T00:25:06;62956.06;;;0.41;86.02
6833;BME280;3454;42.654;23.378;2023-04-06T00:27:32;62959.84;;;0.45;86.13
6833;BME280;3454;42.654;23.378;2023-04-06T00:29:57;62951.97;;;0.40;86.36
6833;BME280;3454;42.654;23.378;2023-04-06T00:32:22;62955.19;;;0.43;86.29
6833;BME280;3454;42.654;23.378;2023-04-06T00:34:48;62960.38;;;0.45;86.29
6833;BME280;3454;42.654;23.378;2023-04-06T00:37:14;62956.91;;;0.40;86.09
6833;BME280;3454;42.654;23.378;2023-04-06T00:39:39;62962.00;;;0.47;85.93
6833;BME280;3454;42.654;23.378;2023-04-06T00:42:11;62957.16;;;0.42;86.02
6833;BME280;3454;42.654;23.378;2023-04-06T00:44:41;62960.16;;;0.43;86.39
6833;BME280;3454;42.654;23.378;2023-04-06T00:47:07;62957.91;;;0.45;86.61
6833;BME280;3454;42.654;23.378;2023-04-06T00:49:32;62956.28;;;0.44;86.86
6833;BME280;3454;42.654;23.378;2023-04-06T00:51:58;62962.00;;;0.47;86.76
6833;BME280;3454;42.654;23.378;2023-04-06T00:54:23;62984.75;;;0.68;86.10
6833;BME280;3454;42.654;23.378;2023-04-06T00:56:50;62996.66;;;0.79;85.50
6833;BME280;3454;42.654;23.378;2023-04-06T00:59:15;62976.09;;;0.60;85.42
6833;BME280;3454;42.654;23.378;2023-04-06T01:01:40;62972.31;;;0.56;85.80
6833;BME280;3454;42.654;23.378;2023-04-06T01:04:06;62978.50;;;0.64;85.79
6833;BME280;3454;42.654;23.378;2023-04-06T01:06:31;62969.59;;;0.54;85.48
6833;BME280;3454;42.654;23.378;2023-04-06T01:08:57;62974.47;;;0.58;85.22
6833;BME280;3454;42.654;23.378;2023-04-06T01:11:22;62973.63;;;0.60;85.22
6833;BME280;3454;42.654;23.378;2023-04-06T01:13:48;62968.50;;;0.53;85.39
6833;BME280;3454;42.654;23.378;2023-04-06T01:16:13;62967.66;;;0.54;85.82
6833;BME280;3454;42.654;23.378;2023-04-06T01:18:39;62968.19;;;0.55;85.33
6833;BME280;3454;42.654;23.378;2023-04-06T01:21:04;62965.81;;;0.50;86.05
6833;BME280;3454;42.654;23.378;2023-04-06T01:23:31;62958.00;;;0.41;86.19
6833;BME280;3454;42.654;23.378;2023-04-06T01:25:56;62954.13;;;0.42;86.34
6833;BME280;3454;42.654;23.378;2023-04-06T01:28:21;62961.47;;;0.46;86.58
6833;BME280;3454;42.654;23.378;2023-04-06T01:30:47;62958.22;;;0.43;86.20
6833;BME280;3454;42.654;23.378;2023-04-06T01:33:12;62963.88;;;0.51;86.26
6833;BME280;3454;42.654;23.378;2023-04-06T01:35:38;62966.88;;;0.51;86.05
6833;BME280;3454;42.654;23.378;2023-04-06T01:38:03;62971.75;;;0.56;86.29
6833;BME280;3454;42.654;23.378;2023-04-06T01:40:28;62970.66;;;0.55;86.00
6833;BME280;3454;42.654;23.378;2023-04-06T01:42:54;62983.66;;;0.67;85.98
6833;BME280;3454;42.654;23.378;2023-04-06T01:45:20;62978.50;;;0.64;85.85
6833;BME280;3454;42.654;23.378;2023-04-06T01:47:46;62982.06;;;0.65;85.99
6833;BME280;3454;42.654;23.378;2023-04-06T01:50:11;62978.25;;;0.62;86.00
6833;BME280;3454;42.654;23.378;2023-04-06T01:52:37;62974.16;;;0.60;86.03
6833;BME280;3454;42.654;23.378;2023-04-06T01:55:03;62975.56;;;0.59;86.47
6833;BME280;3454;42.654;23.378;2023-04-06T01:57:28;62973.94;;;0.58;86.13
6833;BME280;3454;42.654;23.378;2023-04-06T01:59:54;62973.94;;;0.58;85.99
6833;BME280;3454;42.654;23.378;2023-04-06T02:02:19;62982.59;;;0.66;85.33
6833;BME280;3454;42.654;23.378;2023-04-06T02:04:45;62974.69;;;0.61;85.72
6833;BME280;3454;42.654;23.378;2023-04-06T02:07:10;62973.94;;;0.58;86.14
6833;BME280;3454;42.654;23.378;2023-04-06T02:09:36;62981.50;;;0.65;85.65
6833;BME280;3454;42.654;23.378;2023-04-06T02:12:01;62987.47;;;0.70;85.66
6833;BME280;3454;42.654;23.378;2023-04-06T02:14:27;62984.44;;;0.70;85.70
6833;BME280;3454;42.654;23.378;2023-04-06T02:16:52;62982.06;;;0.65;85.64
6833;BME280;3454;42.654;23.378;2023-04-06T02:19:18;62983.16;;;0.66;85.40
6833;BME280;3454;42.654;23.378;2023-04-06T02:21:43;62977.09;;;0.65;85.19
6833;BME280;3454;42.654;23.378;2023-04-06T02:24:09;62988.53;;;0.71;85.30
6833;BME280;3454;42.654;23.378;2023-04-06T02:26:34;62983.16;;;0.66;85.25
6833;BME280;3454;42.654;23.378;2023-04-06T02:29:00;62988.00;;;0.71;85.85
6833;BME280;3454;42.654;23.378;2023-04-06T02:31:27;62977.94;;;0.64;85.46
6833;BME280;3454;42.654;23.378;2023-04-06T02:33:52;62981.50;;;0.65;85.85
6833;BME280;3454;42.654;23.378;2023-04-06T02:36:18;62985.84;;;0.69;85.54
6833;BME280;3454;42.654;23.378;2023-04-06T02:38:43;62977.47;;;0.59;85.68
6833;BME280;3454;42.654;23.378;2023-04-06T02:41:08;62981.19;;;0.67;85.68
6833;BME280;3454;42.654;23.378;2023-04-06T02:43:37;62971.22;;;0.55;85.92
6833;BME280;3454;42.654;23.378;2023-04-06T02:46:02;62972.31;;;0.56;85.69
6833;BME280;3454;42.654;23.378;2023-04-06T02:48:28;62980.75;;;0.62;85.85
6833;BME280;3454;42.654;23.378;2023-04-06T02:50:53;62985.84;;;0.69;85.67
6833;BME280;3454;42.654;23.378;2023-04-06T02:53:18;62987.78;;;0.68;85.69
6833;BME280;3454;42.654;23.378;2023-04-06T02:55:44;62970.97;;;0.53;85.92
6833;BME280;3454;42.654;23.378;2023-04-06T02:58:09;63000.47;;;0.82;85.89
6833;BME280;3454;42.654;23.378;2023-04-06T03:00:35;63001.56;;;0.83;85.42
6833;BME280;3454;42.654;23.378;2023-04-06T03:03:01;62989.66;;;0.72;85.61
6833;BME280;3454;42.654;23.378;2023-04-06T03:05:26;62995.28;;;0.80;85.64
6833;BME280;3454;42.654;23.378;2023-04-06T03:07:52;62994.81;;;0.75;85.68
6833;BME280;3454;42.654;23.378;2023-04-06T03:10:17;62988.25;;;0.73;85.68
6833;BME280;3454;42.654;23.378;2023-04-06T03:12:42;62994.50;;;0.77;85.73
6833;BME280;3454;42.654;23.378;2023-04-06T03:15:08;62991.25;;;0.74;85.39
6833;BME280;3454;42.654;23.378;2023-04-06T03:17:34;62985.75;;;0.73;85.50
6833;BME280;3454;42.654;23.378;2023-04-06T03:20:00;62995.34;;;0.75;85.51
6833;BME280;3454;42.654;23.378;2023-04-06T03:22:25;62992.34;;;0.75;85.22
6833;BME280;3454;42.654;23.378;2023-04-06T03:24:51;62988.25;;;0.73;85.29
6833;BME280;3454;42.654;23.378;2023-04-06T03:27:16;62992.88;;;0.75;85.24
6833;BME280;3454;42.654;23.378;2023-04-06T03:29:42;62991.34;;;0.69;85.48
6833;BME280;3454;42.654;23.378;2023-04-06T03:32:07;62990.16;;;0.73;85.97
6833;BME280;3454;42.654;23.378;2023-04-06T03:34:33;62991.50;;;0.76;85.47
6833;BME280;3454;42.654;23.378;2023-04-06T03:36:58;62999.63;;;0.84;85.21
6833;BME280;3454;42.654;23.378;2023-04-06T03:39:23;62991.81;;;0.74;85.31
6833;BME280;3454;42.654;23.378;2023-04-06T03:41:49;62996.13;;;0.78;85.41
6833;BME280;3454;42.654;23.378;2023-04-06T03:44:15;62991.25;;;0.74;85.58
6833;BME280;3454;42.654;23.378;2023-04-06T03:46:40;62991.81;;;0.74;85.30
6833;BME280;3454;42.654;23.378;2023-04-06T03:49:06;62991.50;;;0.76;85.48
6833;BME280;3454;42.654;23.378;2023-04-06T03:51:31;62998.53;;;0.83;84.92
6833;BME280;3454;42.654;23.378;2023-04-06T03:53:57;62996.13;;;0.78;85.00
6833;BME280;3454;42.654;23.378;2023-04-06T03:56:22;62991.81;;;0.74;84.40
6833;BME280;3454;42.654;23.378;2023-04-06T03:58:47;62982.06;;;0.65;85.01
6833;BME280;3454;42.654;23.378;2023-04-06T04:01:16;62988.25;;;0.73;85.18
6833;BME280;3454;42.654;23.378;2023-04-06T04:03:43;62993.44;;;0.76;85.04
6833;BME280;3454;42.654;23.378;2023-04-06T04:06:08;62983.97;;;0.65;84.60
6833;BME280;3454;42.654;23.378;2023-04-06T04:08:33;62987.47;;;0.70;85.50
6833;BME280;3454;42.654;23.378;2023-04-06T04:11:00;62975.31;;;0.57;85.07
6833;BME280;3454;42.654;23.378;2023-04-06T04:13:26;62996.66;;;0.79;85.20
6833;BME280;3454;42.654;23.378;2023-04-06T04:15:51;62993.66;;;0.78;84.72
6833;BME280;3454;42.654;23.378;2023-04-06T04:18:18;63001.56;;;0.83;84.65
6833;BME280;3454;42.654;23.378;2023-04-06T04:20:43;62996.66;;;0.79;84.19
6833;BME280;3454;42.654;23.378;2023-04-06T04:23:09;62987.47;;;0.70;84.82
6833;BME280;3454;42.654;23.378;2023-04-06T04:25:34;62995.59;;;0.78;84.89
6833;BME280;3454;42.654;23.378;2023-04-06T04:27:59;63006.97;;;0.89;84.94
6833;BME280;3454;42.654;23.378;2023-04-06T04:30:25;63006.44;;;0.88;85.27
6833;BME280;3454;42.654;23.378;2023-04-06T04:32:50;63015.66;;;0.97;84.58
6833;BME280;3454;42.654;23.378;2023-04-06T04:35:16;63011.53;;;0.95;84.31
6833;BME280;3454;42.654;23.378;2023-04-06T04:37:41;63006.66;;;0.91;84.24
6833;BME280;3454;42.654;23.378;2023-04-06T04:40:07;63011.31;;;0.93;84.43
6833;BME280;3454;42.654;23.378;2023-04-06T04:42:33;63012.94;;;0.94;84.00
6833;BME280;3454;42.654;23.378;2023-04-06T04:44:59;63018.34;;;0.99;84.02
6833;BME280;3454;42.654;23.378;2023-04-06T04:47:24;63024.31;;;1.05;84.38
6833;BME280;3454;42.654;23.378;2023-04-06T04:49:50;63024.00;;;1.07;83.75
6833;BME280;3454;42.654;23.378;2023-04-06T04:52:15;63036.22;;;1.16;83.57
6833;BME280;3454;42.654;23.378;2023-04-06T04:54:40;63030.81;;;1.11;83.43
6833;BME280;3454;42.654;23.378;2023-04-06T04:57:06;63027.25;;;1.10;83.07
6833;BME280;3454;42.654;23.378;2023-04-06T04:59:32;63040.00;;;1.19;82.81
6833;BME280;3454;42.654;23.378;2023-04-06T05:01:57;63058.22;;;1.34;83.55
6833;BME280;3454;42.654;23.378;2023-04-06T05:04:23;63051.94;;;1.30;82.29
6833;BME280;3454;42.654;23.378;2023-04-06T05:06:49;63029.94;;;1.12;82.61
6833;BME280;3454;42.654;23.378;2023-04-06T05:09:14;63036.78;;;1.16;83.05
6833;BME280;3454;42.654;23.378;2023-04-06T05:11:40;63029.72;;;1.10;82.81
6833;BME280;3454;42.654;23.378;2023-04-06T05:14:06;63027.56;;;1.08;83.72
6833;BME280;3454;42.654;23.378;2023-04-06T05:16:33;63031.88;;;1.12;83.52
6833;BME280;3454;42.654;23.378;2023-04-06T05:18:59;63053.34;;;1.29;83.35
6833;BME280;3454;42.654;23.378;2023-04-06T05:21:24;63056.81;;;1.35;82.44
6833;BME280;3454;42.654;23.378;2023-04-06T05:23:51;63047.28;;;1.28;82.75
6833;BME280;3454;42.654;23.378;2023-04-06T05:26:16;63047.59;;;1.26;83.22
6833;BME280;3454;42.654;23.378;2023-04-06T05:28:42;63068.22;;;1.45;82.61
6833;BME280;3454;42.654;23.378;2023-04-06T05:31:09;63075.25;;;1.52;82.56
6833;BME280;3454;42.654;23.378;2023-04-06T05:33:35;63072.00;;;1.49;83.04
6833;BME280;3454;42.654;23.378;2023-04-06T05:36:01;63063.56;;;1.43;83.08
6833;BME280;3454;42.654;23.378;2023-04-06T05:38:26;63071.44;;;1.48;82.85
6833;BME280;3454;42.654;23.378;2023-04-06T05:40:51;63080.13;;;1.56;83.14
6833;BME280;3454;42.654;23.378;2023-04-06T05:43:17;63069.28;;;1.46;83.47
6833;BME280;3454;42.654;23.378;2023-04-06T05:45:44;63055.50;;;1.31;84.72
6833;BME280;3454;42.654;23.378;2023-04-06T05:48:10;63050.31;;;1.29;85.31
6833;BME280;3454;42.654;23.378;2023-04-06T05:50:36;63049.78;;;1.28;85.41
6833;BME280;3454;42.654;23.378;2023-04-06T05:53:01;63049.78;;;1.28;85.49
6833;BME280;3454;42.654;23.378;2023-04-06T05:55:26;63108.09;;;1.80;87.05
6833;BME280;3454;42.654;23.378;2023-04-06T05:57:53;63069.28;;;1.46;86.39
6833;BME280;3454;42.654;23.378;2023-04-06T06:00:18;63071.44;;;1.48;86.72
6833;BME280;3454;42.654;23.378;2023-04-06T06:02:44;63065.50;;;1.43;86.92
6833;BME280;3454;42.654;23.378;2023-04-06T06:05:09;63068.75;;;1.46;86.58
6833;BME280;3454;42.654;23.378;2023-04-06T06:07:35;63067.66;;;1.45;86.89
6833;BME280;3454;42.654;23.378;2023-04-06T06:10:01;63060.31;;;1.40;86.63
6833;BME280;3454;42.654;23.378;2023-04-06T06:12:26;63072.53;;;1.49;86.73
6833;BME280;3454;42.654;23.378;2023-04-06T06:14:52;63069.53;;;1.49;87.47
6833;BME280;3454;42.654;23.378;2023-04-06T06:17:17;63076.56;;;1.55;86.47
6833;BME280;3454;42.654;23.378;2023-04-06T06:19:42;63074.72;;;1.51;87.10
6833;BME280;3454;42.654;23.378;2023-04-06T06:22:08;63083.91;;;1.60;86.96
6833;BME280;3454;42.654;23.378;2023-04-06T06:24:33;63089.91;;;1.65;87.34
6833;BME280;3454;42.654;23.378;2023-04-06T06:26:58;63080.59;;;1.61;88.10
6833;BME280;3454;42.654;23.378;2023-04-06T06:29:24;63090.66;;;1.68;87.67
6833;BME280;3454;42.654;23.378;2023-04-06T06:31:49;63101.25;;;1.76;88.01
6833;BME280;3454;42.654;23.378;2023-04-06T06:34:15;63087.19;;;1.63;88.14
6833;BME280;3454;42.654;23.378;2023-04-06T06:36:40;63106.78;;;1.77;88.53
6833;BME280;3454;42.654;23.378;2023-04-06T06:39:06;63115.59;;;1.92;88.58
6833;BME280;3454;42.654;23.378;2023-04-06T06:41:31;63108.88;;;1.83;88.49
6833;BME280;3454;42.654;23.378;2023-04-06T06:43:57;63119.94;;;1.96;89.14
6833;BME280;3454;42.654;23.378;2023-04-06T06:46:22;63124.81;;;2.00;86.28
6833;BME280;3454;42.654;23.378;2023-04-06T06:48:47;63147.91;;;2.19;85.99
6833;BME280;3454;42.654;23.378;2023-04-06T06:51:13;63141.41;;;2.13;85.71
6833;BME280;3454;42.654;23.378;2023-04-06T06:53:38;63165.38;;;2.31;86.43
6833;BME280;3454;42.654;23.378;2023-04-06T06:56:04;63141.97;;;2.14;85.52
6833;BME280;3454;42.654;23.378;2023-04-06T06:58:30;63132.19;;;2.05;86.94
6833;BME280;3454;42.654;23.378;2023-04-06T07:00:56;63117.78;;;1.94;86.62
6833;BME280;3454;42.654;23.378;2023-04-06T07:03:22;63117.00;;;1.91;86.71
6833;BME280;3454;42.654;23.378;2023-04-06T07:05:49;63130.00;;;2.03;86.54
6833;BME280;3454;42.654;23.378;2023-04-06T07:08:24;63145.13;;;2.21;86.42
6833;BME280;3454;42.654;23.378;2023-04-06T07:10:51;63153.56;;;2.27;84.14
6833;BME280;3454;42.654;23.378;2023-04-06T07:13:21;63139.47;;;2.14;84.51
6833;BME280;3454;42.654;23.378;2023-04-06T07:15:51;63147.06;;;2.21;83.82
6833;BME280;3454;42.654;23.378;2023-04-06T07:18:17;63155.28;;;2.24;84.30
6833;BME280;3454;42.654;23.378;2023-04-06T07:20:43;63153.56;;;2.27;84.12
6833;BME280;3454;42.654;23.378;2023-04-06T07:23:09;63159.84;;;2.30;83.86
6833;BME280;3454;42.654;23.378;2023-04-06T07:25:34;63162.56;;;2.33;83.14
6833;BME280;3454;42.654;23.378;2023-04-06T07:28:00;63174.72;;;2.46;83.50
6833;BME280;3454;42.654;23.378;2023-04-06T07:30:26;63187.84;;;2.54;82.58
6833;BME280;3454;42.654;23.378;2023-04-06T07:32:52;63212.50;;;2.79;81.24
6833;BME280;3454;42.654;23.378;2023-04-06T07:35:20;63214.66;;;2.81;82.21
6833;BME280;3454;42.654;23.378;2023-04-06T07:37:46;63218.47;;;2.85;81.86
6833;BME280;3454;42.654;23.378;2023-04-06T07:40:12;63205.44;;;2.73;81.16
6833;BME280;3454;42.654;23.378;2023-04-06T07:42:37;63228.47;;;2.96;81.64
6833;BME280;3454;42.654;23.378;2023-04-06T07:45:03;63227.38;;;2.95;80.62
6833;BME280;3454;42.654;23.378;2023-04-06T07:47:28;63227.16;;;2.93;80.79
6833;BME280;3454;42.654;23.378;2023-04-06T07:49:55;63199.47;;;2.67;78.52
6833;BME280;3454;42.654;23.378;2023-04-06T07:52:23;63225.75;;;2.94;79.89
6833;BME280;3454;42.654;23.378;2023-04-06T07:54:48;63227.16;;;2.93;79.97
6833;BME280;3454;42.654;23.378;2023-04-06T07:57:14;63231.81;;;2.95;80.45
6833;BME280;3454;42.654;23.378;2023-04-06T07:59:40;63241.81;;;3.06;79.88
6833;BME280;3454;42.654;23.378;2023-04-06T08:02:05;63245.28;;;3.12;78.79
6833;BME280;3454;42.654;23.378;2023-04-06T08:04:31;63258.88;;;3.24;78.46
6833;BME280;3454;42.654;23.378;2023-04-06T08:06:57;63249.97;;;3.14;77.93
6833;BME280;3454;42.654;23.378;2023-04-06T08:09:22;63221.19;;;2.87;78.52
6833;BME280;3454;42.654;23.378;2023-04-06T08:11:48;63224.69;;;2.93;78.86
6833;BME280;3454;42.654;23.378;2023-04-06T08:14:14;63226.06;;;2.92;79.18
6833;BME280;3454;42.654;23.378;2023-04-06T08:16:41;63257.03;;;3.20;78.37
6833;BME280;3454;42.654;23.378;2023-04-06T08:19:07;63244.75;;;3.11;77.73
6833;BME280;3454;42.654;23.378;2023-04-06T08:21:36;63262.44;;;3.25;77.76
6833;BME280;3454;42.654;23.378;2023-04-06T08:24:02;63262.44;;;3.25;78.41
6833;BME280;3454;42.654;23.378;2023-04-06T08:26:28;63288.00;;;3.49;77.13
6833;BME280;3454;42.654;23.378;2023-04-06T08:28:53;63291.25;;;3.52;76.43
6833;BME280;3454;42.654;23.378;2023-04-06T08:31:19;63308.63;;;3.68;75.79
6833;BME280;3454;42.654;23.378;2023-04-06T08:33:45;63301.56;;;3.62;74.87
6833;BME280;3454;42.654;23.378;2023-04-06T08:36:13;63294.19;;;3.57;75.44
6833;BME280;3454;42.654;23.378;2023-04-06T08:38:39;63320.78;;;3.82;74.95
6833;BME280;3454;42.654;23.378;2023-04-06T08:41:12;63337.13;;;3.97;73.20
6833;BME280;3454;42.654;23.378;2023-04-06T08:43:44;63324.63;;;3.85;72.94
6833;BME280;3454;42.654;23.378;2023-04-06T08:46:12;63336.88;;;3.94;73.80
6833;BME280;3454;42.654;23.378;2023-04-06T08:48:42;63359.50;;;4.13;72.86
6833;BME280;3454;42.654;23.378;2023-04-06T08:51:11;63333.31;;;3.93;70.06
6833;BME280;3454;42.654;23.378;2023-04-06T08:53:38;63328.72;;;3.87;71.13
6833;BME280;3454;42.654;23.378;2023-04-06T08:56:04;63344.72;;;4.04;70.64
6833;BME280;3454;42.654;23.378;2023-04-06T08:58:34;63325.69;;;3.86;68.99
6833;BME280;3454;42.654;23.378;2023-04-06T09:01:00;63321.66;;;3.80;70.35
6833;BME280;3454;42.654;23.378;2023-04-06T09:03:28;63333.53;;;3.96;70.13
6833;BME280;3454;42.654;23.378;2023-04-06T09:05:55;63360.28;;;4.16;69.52
6833;BME280;3454;42.654;23.378;2023-04-06T09:08:21;63386.81;;;4.45;68.44
6833;BME280;3454;42.654;23.378;2023-04-06T09:10:47;63406.69;;;4.61;67.42
6833;BME280;3454;42.654;23.378;2023-04-06T09:13:14;63378.75;;;4.33;65.71
6833;BME280;3454;42.654;23.378;2023-04-06T09:15:39;63434.75;;;4.85;66.91
6833;BME280;3454;42.654;23.378;2023-04-06T09:18:05;63414.31;;;4.68;65.17
6833;BME280;3454;42.654;23.378;2023-04-06T09:20:31;63423.34;;;4.74;65.57
6833;BME280;3454;42.654;23.378;2023-04-06T09:22:56;63417.91;;;4.69;66.05
6833;BME280;3454;42.654;23.378;2023-04-06T09:25:28;63457.06;;;5.05;65.27
6833;BME280;3454;42.654;23.378;2023-04-06T09:28:03;63430.09;;;4.83;64.72
6833;BME280;3454;42.654;23.378;2023-04-06T09:30:29;63464.94;;;5.15;64.80
6833;BME280;3454;42.654;23.378;2023-04-06T09:32:56;63459.78;;;5.08;64.29
6833;BME280;3454;42.654;23.378;2023-04-06T09:35:23;63503.56;;;5.51;65.04
6833;BME280;3454;42.654;23.378;2023-04-06T09:37:52;63498.13;;;5.46;63.83
6833;BME280;3454;42.654;23.378;2023-04-06T09:40:18;63473.97;;;5.21;64.72
6833;BME280;3454;42.654;23.378;2023-04-06T09:42:45;63550.41;;;5.94;65.89
6833;BME280;3454;42.654;23.378;2023-04-06T09:45:12;63523.94;;;5.72;62.87
6833;BME280;3454;42.654;23.378;2023-04-06T09:47:40;63514.22;;;5.58;61.63
6833;BME280;3454;42.654;23.378;2023-04-06T09:50:09;63534.38;;;5.77;61.12
6833;BME280;3454;42.654;23.378;2023-04-06T09:52:47;63531.09;;;5.74;60.06
6833;BME280;3454;42.654;23.378;2023-04-06T09:55:40;63523.16;;;5.69;60.29
6833;BME280;3454;42.654;23.378;2023-04-06T09:58:07;63542.78;;;5.87;60.39
6833;BME280;3454;42.654;23.378;2023-04-06T10:03:50;63509.88;;;5.54;61.03
6833;BME280;3454;42.654;23.378;2023-04-06T10:06:13;63532.97;;;5.78;59.78
6833;BME280;3454;42.654;23.378;2023-04-06T10:08:40;63545.53;;;5.89;59.03
6833;BME280;3454;42.654;23.378;2023-04-06T10:11:09;63516.31;;;5.65;59.13
6833;BME280;3454;42.654;23.378;2023-04-06T10:13:35;63534.06;;;5.79;60.06
6833;BME280;3454;42.654;23.378;2023-04-06T10:16:01;63515.84;;;5.60;59.79
6833;BME280;3454;42.654;23.378;2023-04-06T10:18:27;63542.47;;;5.89;59.00
6833;BME280;3454;42.654;23.378;2023-04-06T10:21:11;63533.50;;;5.78;58.25
6833;BME280;3454;42.654;23.378;2023-04-06T10:24:08;63546.59;;;5.90;57.68
6833;BME280;3454;42.654;23.378;2023-04-06T10:26:38;63570.03;;;6.12;57.05
6833;BME280;3454;42.654;23.378;2023-04-06T10:29:04;63598.16;;;6.36;56.15
6833;BME280;3454;42.654;23.378;2023-04-06T10:31:30;63570.56;;;6.13;56.22
6833;BME280;3454;42.654;23.378;2023-04-06T10:33:58;63610.34;;;6.49;55.42
6833;BME280;3454;42.654;23.378;2023-04-06T10:36:42;63629.66;;;6.69;57.41
6833;BME280;3454;42.654;23.378;2023-04-06T10:39:07;63588.00;;;6.29;54.57
6833;BME280;3454;42.654;23.378;2023-04-06T10:41:41;63611.44;;;6.50;55.13
6833;BME280;3454;42.654;23.378;2023-04-06T10:44:06;63599.22;;;6.37;55.37
6833;BME280;3454;42.654;23.378;2023-04-06T10:46:33;63671.16;;;7.03;56.64
6833;BME280;3454;42.654;23.378;2023-04-06T10:49:09;63648.50;;;6.85;53.42
6833;BME280;3454;42.654;23.378;2023-04-06T10:51:38;63627.25;;;6.65;53.57
6833;BME280;3454;42.654;23.378;2023-04-06T10:54:08;63578.41;;;6.22;56.34
6833;BME280;3454;42.654;23.378;2023-04-06T10:56:37;63624.53;;;6.62;54.80
6833;BME280;3454;42.654;23.378;2023-04-06T10:59:04;63704.34;;;7.38;53.89
6833;BME280;3454;42.654;23.378;2023-04-06T11:01:31;63647.63;;;6.86;53.79
6833;BME280;3454;42.654;23.378;2023-04-06T11:03:57;63648.84;;;6.83;54.26
6833;BME280;3454;42.654;23.378;2023-04-06T11:06:28;63625.50;;;6.68;54.09
6833;BME280;3454;42.654;23.378;2023-04-06T11:08:55;63615.81;;;6.54;54.06
6833;BME280;3454;42.654;23.378;2023-04-06T11:11:23;63627.78;;;6.65;54.89
6833;BME280;3454;42.654;23.378;2023-04-06T11:13:55;63656.91;;;6.95;54.36
6833;BME280;3454;42.654;23.378;2023-04-06T11:16:23;63629.66;;;6.69;55.33
6833;BME280;3454;42.654;23.378;2023-04-06T11:21:45;63715.25;;;7.48;54.72
6833;BME280;3454;42.654;23.378;2023-04-06T11:24:16;63750.50;;;7.79;53.91
6833;BME280;3454;42.654;23.378;2023-04-06T11:26:48;63674.34;;;7.11;51.91
6833;BME280;3454;42.654;23.378;2023-04-06T11:29:24;63651.78;;;6.88;53.80
6833;BME280;3454;42.654;23.378;2023-04-06T11:31:51;63644.47;;;6.78;54.56
6833;BME280;3454;42.654;23.378;2023-04-06T11:34:21;63640.22;;;6.82;54.12
6833;BME280;3454;42.654;23.378;2023-04-06T11:36:49;63592.91;;;6.33;56.61
6833;BME280;3454;42.654;23.378;2023-04-06T11:39:20;63633.56;;;6.68;57.77
6833;BME280;3454;42.654;23.378;2023-04-06T11:41:50;63665.41;;;7.00;56.36
6833;BME280;3454;42.654;23.378;2023-04-06T11:47:02;63630.53;;;6.68;55.73
6833;BME280;3454;42.654;23.378;2023-04-06T11:49:29;63622.56;;;6.63;54.81
6833;BME280;3454;42.654;23.378;2023-04-06T11:51:55;63598.34;;;6.38;54.62
6833;BME280;3454;42.654;23.378;2023-04-06T11:54:48;63576.88;;;6.16;57.18
6833;BME280;3454;42.654;23.378;2023-04-06T11:57:15;63576.56;;;6.18;56.88
6833;BME280;3454;42.654;23.378;2023-04-06T11:59:42;63573.84;;;6.16;58.89
6833;BME280;3454;42.654;23.378;2023-04-06T12:02:08;63583.88;;;6.27;57.77
6833;BME280;3454;42.654;23.378;2023-04-06T12:04:34;63574.06;;;6.18;57.02
6833;BME280;3454;42.654;23.378;2023-04-06T12:07:00;63547.16;;;5.91;57.02
6833;BME280;3454;42.654;23.378;2023-04-06T12:09:25;63578.22;;;6.20;57.79
6833;BME280;3454;42.654;23.378;2023-04-06T12:11:51;63575.78;;;6.15;57.67
6833;BME280;3454;42.654;23.378;2023-04-06T12:14:16;63592.69;;;6.31;57.10
6833;BME280;3454;42.654;23.378;2023-04-06T12:16:42;63570.03;;;6.12;58.94
6833;BME280;3454;42.654;23.378;2023-04-06T12:19:07;63549.56;;;5.96;58.42
6833;BME280;3454;42.654;23.378;2023-04-06T12:21:34;63535.13;;;5.80;59.70
6833;BME280;3454;42.654;23.378;2023-04-06T12:24:02;63510.09;;;5.57;58.99
6833;BME280;3454;42.654;23.378;2023-04-06T12:26:28;63524.25;;;5.70;60.03
6833;BME280;3454;42.654;23.378;2023-04-06T12:28:54;63510.34;;;5.59;59.82
6833;BME280;3454;42.654;23.378;2023-04-06T12:31:21;63527.22;;;5.75;60.10
6833;BME280;3454;42.654;23.378;2023-04-06T12:33:49;63507.69;;;5.52;59.01
6833;BME280;3454;42.654;23.378;2023-04-06T12:36:16;63537.31;;;5.82;59.96
6833;BME280;3454;42.654;23.378;2023-04-06T12:38:46;63570.88;;;6.11;61.19
6833;BME280;3454;42.654;23.378;2023-04-06T12:41:12;63605.44;;;6.45;59.77
6833;BME280;3454;42.654;23.378;2023-04-06T12:43:39;63583.41;;;6.22;57.17
6833;BME280;3454;42.654;23.378;2023-04-06T12:46:05;63549.00;;;5.95;57.86
6833;BME280;3454;42.654;23.378;2023-04-06T12:48:31;63557.72;;;6.03;57.85
6833;BME280;3454;42.654;23.378;2023-04-06T12:50:58;63549.31;;;5.93;58.33
6833;BME280;3454;42.654;23.378;2023-04-06T12:53:24;63529.16;;;5.74;57.16
6833;BME280;3454;42.654;23.378;2023-04-06T12:55:49;63515.00;;;5.61;58.01
6833;BME280;3454;42.654;23.378;2023-04-06T12:58:15;63516.09;;;5.62;58.24
6833;BME280;3454;42.654;23.378;2023-04-06T13:00:41;63506.50;;;5.56;58.11
6833;BME280;3454;42.654;23.378;2023-04-06T13:03:07;63539.81;;;5.82;60.35
6833;BME280;3454;42.654;23.378;2023-04-06T13:05:32;63542.25;;;5.86;58.53
6833;BME280;3454;42.654;23.378;2023-04-06T13:07:58;63514.47;;;5.61;58.42
6833;BME280;3454;42.654;23.378;2023-04-06T13:10:23;63483.19;;;5.30;58.45
6833;BME280;3454;42.654;23.378;2023-04-06T13:12:49;63501.72;;;5.47;59.51
6833;BME280;3454;42.654;23.378;2023-04-06T13:15:14;63520.22;;;5.64;59.18
6833;BME280;3454;42.654;23.378;2023-04-06T13:17:40;63533.50;;;5.78;60.32
6833;BME280;3454;42.654;23.378;2023-04-06T13:20:06;63515.00;;;5.61;58.03
6833;BME280;3454;42.654;23.378;2023-04-06T13:22:31;63490.81;;;5.37;59.23
6833;BME280;3454;42.654;23.378;2023-04-06T13:24:57;63487.22;;;5.36;58.23
6833;BME280;3454;42.654;23.378;2023-04-06T13:27:23;63504.97;;;5.50;58.95